createdAt,value
2023-02-02T00:02:08.154Z,28.86
2023-02-02T00:04:38.520Z,28.88
2023-02-02T00:07:09.922Z,28.85
2023-02-02T00:09:40.251Z,28.84
2023-02-02T00:12:11.671Z,28.87
2023-02-02T00:14:42.401Z,28.89
2023-02-02T00:17:13.656Z,28.88
2023-02-02T00:19:47.644Z,28.97
2023-02-02T00:22:20.534Z,29.02
2023-02-02T00:24:50.754Z,29.08
2023-02-02T00:27:23.453Z,29.10
2023-02-02T00:29:54.697Z,29.12
2023-02-02T00:32:25.922Z,29.10
2023-02-02T00:34:59.357Z,29.15
2023-02-02T00:37:30.017Z,29.18
2023-02-02T00:40:00.768Z,29.22
2023-02-02T00:42:32.266Z,29.23
2023-02-02T00:45:18.790Z,29.27
2023-02-02T00:47:50.745Z,29.31
2023-02-02T00:50:22.917Z,29.40
2023-02-02T00:52:54.199Z,29.47
2023-02-02T00:55:25.188Z,29.54
2023-02-02T00:57:56.039Z,29.56
2023-02-02T01:00:28.168Z,29.65
2023-02-02T01:03:05.207Z,29.72
2023-02-02T01:05:38.523Z,29.80
2023-02-02T01:08:09.478Z,29.90
2023-02-02T01:10:40.506Z,29.99
2023-02-02T01:13:10.913Z,30.06
2023-02-02T01:15:41.504Z,30.09
2023-02-02T01:18:12.278Z,30.08
2023-02-02T01:20:42.978Z,30.20
2023-02-02T01:23:16.595Z,30.31
2023-02-02T01:25:47.854Z,30.43
2023-02-02T01:28:18.516Z,30.48
2023-02-02T01:30:49.932Z,30.48
2023-02-02T01:33:20.732Z,30.48
2023-02-02T01:35:57.426Z,30.56
2023-02-02T01:38:27.952Z,30.60
2023-02-02T01:40:59.360Z,30.71
2023-02-02T01:43:50.456Z,30.74
2023-02-02T01:46:24.313Z,30.82
2023-02-02T01:49:18.244Z,30.96
2023-02-02T01:52:07.903Z,31.06
2023-02-02T01:54:45.616Z,31.04
2023-02-02T01:57:24.937Z,31.15
2023-02-02T01:59:57.036Z,31.22
2023-02-02T02:02:28.977Z,31.25
2023-02-02T02:05:02.986Z,31.36
2023-02-02T02:07:33.857Z,31.44
2023-02-02T02:10:04.434Z,31.50
2023-02-02T02:12:35.729Z,31.50
2023-02-02T02:15:26.587Z,31.50
2023-02-02T02:18:13.367Z,31.62
2023-02-02T02:21:23.155Z,31.58
2023-02-02T02:24:42.859Z,31.64
2023-02-02T02:27:43.440Z,31.62
2023-02-02T02:30:17.269Z,31.59
2023-02-02T02:33:15.156Z,31.65
2023-02-02T02:36:06.939Z,31.73
2023-02-02T02:38:44.729Z,31.77
2023-02-02T02:41:23.639Z,31.85
2023-02-02T02:44:00.733Z,31.77
2023-02-02T02:46:32.561Z,31.82
2023-02-02T02:49:04.122Z,31.81
2023-02-02T02:51:54.621Z,31.80
2023-02-02T02:54:44.158Z,31.82
2023-02-02T02:57:36.285Z,31.88
2023-02-02T03:00:28.394Z,31.89
2023-02-02T03:03:16.316Z,31.93
2023-02-02T03:05:56.251Z,31.93
2023-02-02T03:08:42.551Z,31.93
2023-02-02T03:11:15.672Z,31.83
2023-02-02T03:13:46.330Z,31.83
2023-02-02T03:16:18.414Z,31.90
2023-02-02T03:18:48.929Z,31.91
2023-02-02T03:21:21.939Z,31.98
2023-02-02T03:23:52.563Z,32.06
2023-02-02T03:26:23.759Z,32.14
2023-02-02T03:28:56.228Z,32.16
2023-02-02T03:31:31.803Z,32.24
2023-02-02T03:34:02.765Z,32.31
2023-02-02T03:36:33.935Z,32.36
2023-02-02T03:39:04.913Z,32.47
2023-02-02T03:41:35.945Z,32.50
2023-02-02T03:44:07.005Z,32.58
2023-02-02T03:46:37.821Z,32.59
2023-02-02T03:49:08.607Z,32.65
2023-02-02T03:51:40.370Z,32.72
2023-02-02T03:54:12.085Z,32.78
2023-02-02T03:56:43.607Z,32.87
2023-02-02T03:59:14.865Z,32.91
2023-02-02T04:01:45.658Z,32.98
2023-02-02T04:04:16.751Z,33.02
2023-02-02T04:06:51.220Z,33.10
2023-02-02T04:09:22.339Z,33.19
2023-02-02T04:11:52.802Z,33.18
2023-02-02T04:14:23.377Z,33.07
2023-02-02T04:16:54.482Z,32.98
2023-02-02T04:19:25.084Z,32.91
2023-02-02T04:21:56.179Z,32.88
2023-02-02T04:24:27.927Z,32.86
2023-02-02T04:26:58.631Z,32.77
2023-02-02T04:29:30.750Z,32.77
2023-02-02T04:32:01.633Z,32.80
2023-02-02T04:34:34.909Z,32.89
2023-02-02T04:37:05.385Z,32.96
2023-02-02T04:39:35.975Z,32.94
2023-02-02T04:42:08.420Z,33.01
2023-02-02T04:44:39.103Z,32.99
2023-02-02T04:47:10.162Z,32.93
2023-02-02T04:49:44.379Z,32.90
2023-02-02T04:52:15.507Z,32.87
2023-02-02T04:54:46.577Z,32.79
2023-02-02T04:57:17.110Z,32.76
2023-02-02T04:59:48.100Z,32.76
2023-02-02T05:02:18.926Z,32.75
2023-02-02T05:04:49.453Z,32.76
2023-02-02T05:07:29.861Z,32.81
2023-02-02T05:10:01.172Z,32.80
2023-02-02T05:12:32.311Z,32.83
2023-02-02T05:15:04.459Z,32.88
2023-02-02T05:17:34.830Z,32.90
2023-02-02T05:20:06.436Z,32.91
2023-02-02T05:22:36.912Z,32.96
2023-02-02T05:25:08.881Z,33.13
2023-02-02T05:27:39.812Z,33.29
2023-02-02T05:30:14.862Z,33.28
2023-02-02T05:32:47.076Z,33.27
2023-02-02T05:35:17.828Z,33.28
2023-02-02T05:37:48.878Z,33.11
2023-02-02T05:40:19.751Z,33.05
2023-02-02T05:42:53.151Z,32.99
2023-02-02T05:45:26.844Z,32.94
2023-02-02T05:47:57.754Z,32.94
2023-02-02T05:50:28.476Z,32.93
2023-02-02T05:53:08.014Z,32.82
2023-02-02T05:55:38.762Z,32.80
2023-02-02T05:58:09.565Z,32.86
2023-02-02T06:00:43.449Z,32.87
2023-02-02T06:03:14.784Z,32.91
2023-02-02T06:05:45.828Z,32.83
2023-02-02T06:08:16.414Z,32.90
2023-02-02T06:10:47.485Z,32.85
2023-02-02T06:13:17.925Z,32.83
2023-02-02T06:15:48.441Z,32.82
2023-02-02T06:18:30.892Z,32.84
2023-02-02T06:21:02.567Z,32.75
2023-02-02T06:23:34.951Z,32.71
2023-02-02T06:26:05.809Z,32.82
2023-02-02T06:28:37.121Z,32.89
2023-02-02T06:31:09.613Z,33.01
2023-02-02T06:33:41.247Z,33.21
2023-02-02T06:36:11.718Z,33.32
2023-02-02T06:38:42.734Z,33.45
2023-02-02T06:41:13.864Z,33.58
2023-02-02T06:43:44.280Z,33.75
2023-02-02T06:46:14.886Z,33.70
2023-02-02T06:48:45.314Z,33.71
2023-02-02T06:51:18.559Z,33.70
2023-02-02T06:53:50.538Z,33.59
2023-02-02T06:56:28.432Z,33.64
2023-02-02T06:58:59.303Z,33.56
2023-02-02T07:01:30.199Z,33.44
2023-02-02T07:04:01.022Z,33.42
2023-02-02T07:06:31.928Z,33.32
2023-02-02T07:09:03.568Z,33.33
2023-02-02T07:11:37.354Z,33.32
2023-02-02T07:14:10.387Z,33.25
2023-02-02T07:16:44.403Z,33.18
2023-02-02T07:19:15.241Z,33.15
2023-02-02T07:21:46.615Z,33.12
2023-02-02T07:24:18.038Z,33.09
2023-02-02T07:26:48.626Z,33.03
2023-02-02T07:29:21.614Z,33.00
2023-02-02T07:31:52.809Z,33.00
2023-02-02T07:34:23.823Z,32.99
2023-02-02T07:36:56.422Z,33.02
2023-02-02T07:39:27.232Z,32.99
2023-02-02T07:41:58.236Z,33.01
2023-02-02T07:44:37.757Z,33.04
2023-02-02T07:47:09.271Z,32.99
2023-02-02T07:49:40.027Z,33.03
2023-02-02T07:52:10.486Z,33.00
2023-02-02T07:54:41.038Z,32.94
2023-02-02T07:57:14.124Z,32.91
2023-02-02T07:59:44.760Z,32.89
2023-02-02T08:02:15.232Z,32.87
2023-02-02T08:04:46.386Z,32.90
2023-02-02T08:07:17.635Z,32.87
2023-02-02T08:09:49.508Z,32.81
2023-02-02T08:12:24.883Z,32.77
2023-02-02T08:14:56.744Z,32.71
2023-02-02T08:17:30.489Z,32.62
2023-02-02T08:20:01.291Z,32.64
2023-02-02T08:22:35.676Z,32.64
2023-02-02T08:25:06.670Z,32.61
2023-02-02T08:27:39.159Z,32.58
2023-02-02T08:30:10.871Z,32.55
2023-02-02T08:32:41.384Z,32.52
2023-02-02T08:35:11.889Z,32.51
2023-02-02T08:37:42.686Z,32.44
2023-02-02T08:40:14.292Z,32.43
2023-02-02T08:42:47.190Z,32.36
2023-02-02T08:46:01.996Z,32.34
2023-02-02T08:48:11.977Z,32.32
2023-02-02T08:50:43.008Z,32.30
2023-02-02T08:53:13.589Z,32.22
2023-02-02T08:55:47.040Z,32.23
2023-02-02T08:58:17.690Z,32.21
2023-02-02T09:00:51.755Z,32.15
2023-02-02T09:03:23.520Z,32.19
2023-02-02T09:05:53.917Z,32.15
2023-02-02T09:08:24.641Z,32.16
2023-02-02T09:10:55.772Z,32.10
2023-02-02T09:13:26.897Z,32.11
2023-02-02T09:16:01.937Z,32.11
2023-02-02T09:18:32.690Z,32.07
2023-02-02T09:21:06.382Z,32.06
2023-02-02T09:23:39.428Z,32.04
2023-02-02T09:26:16.284Z,32.01
2023-02-02T09:28:55.642Z,32.05
2023-02-02T09:31:28.123Z,32.09
2023-02-02T09:34:05.315Z,32.01
2023-02-02T09:36:36.160Z,32.00
2023-02-02T09:39:08.496Z,31.96
2023-02-02T09:41:41.845Z,31.93
2023-02-02T09:44:36.672Z,31.93
2023-02-02T09:47:39.487Z,31.90
2023-02-02T09:50:41.539Z,31.96
2023-02-02T09:53:14.932Z,31.92
2023-02-02T09:55:52.254Z,31.94
2023-02-02T09:58:34.472Z,31.89
2023-02-02T10:01:21.820Z,31.87
2023-02-02T10:04:11.765Z,31.81
2023-02-02T10:06:47.918Z,31.70
2023-02-02T10:09:27.448Z,31.66
2023-02-02T10:12:18.813Z,31.64
2023-02-02T10:15:25.356Z,31.61
2023-02-02T10:18:06.208Z,31.58
2023-02-02T10:21:26.353Z,31.57
2023-02-02T10:24:01.282Z,31.51
2023-02-02T10:26:48.431Z,31.49
2023-02-02T10:29:48.016Z,31.44
2023-02-02T10:32:37.951Z,31.45
2023-02-02T10:35:15.001Z,31.43
2023-02-02T10:38:23.898Z,31.43
2023-02-02T10:41:08.888Z,31.39
2023-02-02T10:43:48.532Z,31.37
2023-02-02T10:46:26.605Z,31.41
2023-02-02T10:49:24.477Z,31.38
2023-02-02T10:52:14.808Z,31.37
2023-02-02T10:55:02.891Z,31.33
2023-02-02T10:57:55.537Z,31.26
2023-02-02T11:00:59.283Z,31.33
2023-02-02T11:03:35.782Z,31.26
2023-02-02T11:06:27.741Z,31.33
2023-02-02T11:09:00.468Z,31.29
2023-02-02T11:11:46.386Z,31.26
2023-02-02T11:15:16.937Z,31.32
2023-02-02T11:17:48.778Z,31.22
2023-02-02T11:20:38.134Z,31.27
2023-02-02T11:23:20.146Z,31.15
2023-02-02T11:26:00.566Z,31.19
2023-02-02T11:28:35.733Z,31.21
2023-02-02T11:31:07.240Z,31.30
2023-02-02T11:33:38.439Z,31.28
2023-02-02T11:36:25.409Z,31.32
2023-02-02T11:39:21.850Z,31.32
2023-02-02T11:41:53.138Z,31.25
2023-02-02T11:44:29.736Z,31.28
2023-02-02T11:47:01.706Z,31.29
2023-02-02T11:49:34.914Z,31.30
2023-02-02T11:52:18.346Z,31.29
2023-02-02T11:54:51.796Z,31.29
2023-02-02T11:57:24.134Z,31.23
2023-02-02T12:00:12.717Z,31.27
2023-02-02T12:02:52.314Z,31.33
2023-02-02T12:05:24.676Z,31.41
2023-02-02T12:07:56.077Z,31.44
2023-02-02T12:10:44.953Z,31.49
2023-02-02T12:13:30.403Z,31.51
2023-02-02T12:16:10.479Z,31.49
2023-02-02T12:18:46.785Z,31.48
2023-02-02T12:21:54.930Z,31.51
2023-02-02T12:24:37.602Z,31.52
2023-02-02T12:27:32.548Z,31.55
2023-02-02T12:30:25.556Z,31.51
2023-02-02T12:33:23.101Z,31.51
2023-02-02T12:36:12.724Z,31.51
2023-02-02T12:38:59.230Z,31.52
2023-02-02T12:42:03.406Z,31.57
2023-02-02T12:44:51.697Z,31.55
2023-02-02T12:47:29.650Z,31.53
2023-02-02T12:50:06.642Z,31.47
2023-02-02T12:52:48.230Z,31.44
2023-02-02T12:55:25.522Z,31.45
2023-02-02T12:58:05.195Z,31.40
2023-02-02T13:01:06.203Z,31.45
2023-02-02T13:03:47.273Z,31.40
2023-02-02T13:06:35.163Z,31.38
2023-02-02T13:09:14.360Z,31.32
2023-02-02T13:12:00.009Z,31.35
2023-02-02T13:14:47.137Z,31.30
2023-02-02T13:17:24.081Z,31.27
2023-02-02T13:19:59.966Z,31.26
2023-02-02T13:22:35.746Z,31.23
2023-02-02T13:25:12.086Z,31.18
2023-02-02T13:27:43.652Z,31.10
2023-02-02T13:30:36.011Z,31.20
2023-02-02T13:33:24.824Z,31.27
2023-02-02T13:36:08.105Z,31.27
2023-02-02T13:38:43.125Z,31.28
2023-02-02T13:41:14.468Z,31.25
2023-02-02T13:44:26.128Z,31.26
2023-02-02T13:47:07.768Z,31.25
2023-02-02T13:49:44.250Z,31.19
2023-02-02T13:52:43.070Z,31.27
2023-02-02T13:55:17.533Z,31.23
2023-02-02T13:57:53.199Z,31.20
2023-02-02T14:00:27.825Z,31.19
2023-02-02T14:03:07.425Z,31.17
2023-02-02T14:05:43.432Z,31.17
2023-02-02T14:08:20.215Z,31.15
2023-02-02T14:10:53.539Z,31.11
2023-02-02T14:13:45.401Z,31.14
2023-02-02T14:16:43.935Z,31.13
2023-02-02T14:19:30.370Z,31.13
2023-02-02T14:22:06.962Z,31.11
2023-02-02T14:24:38.434Z,31.11
2023-02-02T14:27:09.388Z,31.12
2023-02-02T14:29:48.550Z,31.13
2023-02-02T14:32:29.379Z,31.14
2023-02-02T14:35:15.906Z,31.14
2023-02-02T14:38:05.869Z,31.16
2023-02-02T14:41:05.722Z,31.15
2023-02-02T14:43:51.939Z,31.16
2023-02-02T14:46:35.709Z,31.15
2023-02-02T14:49:08.035Z,31.14
2023-02-02T14:51:49.442Z,31.14
2023-02-02T14:54:41.867Z,31.14
2023-02-02T14:57:30.180Z,31.16
2023-02-02T15:00:04.729Z,31.12
2023-02-02T15:02:39.559Z,31.13
2023-02-02T15:05:31.658Z,31.15
2023-02-02T15:08:16.926Z,31.13
2023-02-02T15:10:55.551Z,31.13
2023-02-02T15:13:30.422Z,31.13
2023-02-02T15:16:14.899Z,31.13
2023-02-02T15:18:53.819Z,31.11
2023-02-02T15:21:24.797Z,31.09
2023-02-02T15:23:55.968Z,31.06
2023-02-02T15:26:36.239Z,31.06
2023-02-02T15:29:17.941Z,31.04
2023-02-02T15:31:51.287Z,31.03
2023-02-02T15:34:44.215Z,31.02
2023-02-02T15:37:21.560Z,31.01
2023-02-02T15:39:59.119Z,30.99
2023-02-02T15:42:54.840Z,31.02
2023-02-02T15:45:44.281Z,30.96
2023-02-02T15:48:32.201Z,30.92
2023-02-02T15:51:18.703Z,30.93
2023-02-02T15:53:53.246Z,30.88
2023-02-02T15:56:26.038Z,30.90
2023-02-02T15:58:59.593Z,30.89
2023-02-02T16:01:33.927Z,30.87
2023-02-02T16:04:28.221Z,30.90
2023-02-02T16:06:59.148Z,30.88
2023-02-02T16:09:36.095Z,30.89
2023-02-02T16:12:09.929Z,30.89
2023-02-02T16:14:40.964Z,30.72
2023-02-02T16:17:30.087Z,30.69
2023-02-02T16:20:09.448Z,30.62
2023-02-02T16:22:41.303Z,30.57
2023-02-02T16:25:18.076Z,30.57
2023-02-02T16:27:49.639Z,30.52
2023-02-02T16:30:46.875Z,30.54
2023-02-02T16:33:35.467Z,30.46
2023-02-02T16:36:32.911Z,30.45
2023-02-02T16:39:17.148Z,30.41
2023-02-02T16:41:53.026Z,30.38
2023-02-02T16:44:34.219Z,30.39
2023-02-02T16:47:05.359Z,30.34
2023-02-02T16:49:36.118Z,30.34
2023-02-02T16:52:18.468Z,30.32
2023-02-02T16:54:54.462Z,30.30
2023-02-02T16:57:33.971Z,30.28
2023-02-02T17:00:08.448Z,30.25
2023-02-02T17:02:41.129Z,30.23
2023-02-02T17:05:23.263Z,30.25
2023-02-02T17:07:59.500Z,30.20
2023-02-02T17:10:37.463Z,30.20
2023-02-02T17:13:33.277Z,30.23
2023-02-02T17:16:04.560Z,30.15
2023-02-02T17:18:35.196Z,30.17
2023-02-02T17:21:25.120Z,30.17
2023-02-02T17:23:55.521Z,30.15
2023-02-02T17:26:25.913Z,30.12
2023-02-02T17:28:57.622Z,30.09
2023-02-02T17:31:28.490Z,30.09
2023-02-02T17:33:58.866Z,30.08
2023-02-02T17:36:30.217Z,30.09
2023-02-02T17:39:00.555Z,30.08
2023-02-02T17:41:30.973Z,30.09
2023-02-02T17:44:01.800Z,30.05
2023-02-02T17:46:33.379Z,30.03
2023-02-02T17:49:03.966Z,30.06
2023-02-02T17:51:42.050Z,30.03
2023-02-02T17:54:13.817Z,29.99
2023-02-02T17:56:45.021Z,30.01
2023-02-02T17:59:15.277Z,29.99
2023-02-02T18:01:46.635Z,29.97
2023-02-02T18:04:17.675Z,29.95
2023-02-02T18:06:48.046Z,29.95
2023-02-02T18:09:19.105Z,29.94
2023-02-02T18:11:50.819Z,29.91
2023-02-02T18:14:21.526Z,29.92
2023-02-02T18:16:52.106Z,29.92
2023-02-02T18:19:22.295Z,29.89
2023-02-02T18:21:53.223Z,29.87
2023-02-02T18:24:23.377Z,29.88
2023-02-02T18:26:53.921Z,29.85
2023-02-02T18:29:25.153Z,29.84
2023-02-02T18:31:55.727Z,29.82
2023-02-02T18:34:26.920Z,29.81
2023-02-02T18:36:57.266Z,29.80
2023-02-02T18:39:28.299Z,29.79
2023-02-02T18:41:59.716Z,29.77
2023-02-02T18:44:30.522Z,29.75
2023-02-02T18:47:00.934Z,29.73
2023-02-02T18:49:31.786Z,29.73
2023-02-02T18:52:03.336Z,29.70
2023-02-02T18:54:36.596Z,29.71
2023-02-02T18:57:06.825Z,29.69
2023-02-02T18:59:37.328Z,29.68
2023-02-02T19:02:09.528Z,29.67
2023-02-02T19:04:40.364Z,29.67
2023-02-02T19:07:28.996Z,29.66
2023-02-02T19:10:02.209Z,29.64
2023-02-02T19:12:32.798Z,29.60
2023-02-02T19:15:04.394Z,29.62
2023-02-02T19:17:34.807Z,29.60
2023-02-02T19:20:23.462Z,29.59
2023-02-02T19:23:19.427Z,29.58
2023-02-02T19:25:52.321Z,29.56
2023-02-02T19:28:30.106Z,29.56
2023-02-02T19:31:03.006Z,29.55
2023-02-02T19:33:50.292Z,29.57
2023-02-02T19:36:26.302Z,29.54
2023-02-02T19:39:21.182Z,29.54
2023-02-02T19:41:52.491Z,29.47
2023-02-02T19:44:24.727Z,29.48
2023-02-02T19:46:57.655Z,29.49
2023-02-02T19:49:28.293Z,29.46
2023-02-02T19:52:00.386Z,29.44
2023-02-02T19:54:37.644Z,29.45
2023-02-02T19:57:17.043Z,29.46
2023-02-02T19:59:49.958Z,29.46
2023-02-02T20:02:56.686Z,29.50
2023-02-02T20:05:34.836Z,29.41
2023-02-02T20:08:25.061Z,29.46
2023-02-02T20:10:57.702Z,29.40
2023-02-02T20:13:33.914Z,29.39
2023-02-02T20:16:05.962Z,29.42
2023-02-02T20:19:10.822Z,29.41
2023-02-02T20:21:45.260Z,29.41
2023-02-02T20:24:19.961Z,29.40
2023-02-02T20:27:09.772Z,29.40
2023-02-02T20:29:44.415Z,29.33
2023-02-02T20:32:27.448Z,29.35
2023-02-02T20:35:00.176Z,29.35
2023-02-02T20:37:37.601Z,29.34
2023-02-02T20:40:26.751Z,29.39
2023-02-02T20:42:59.285Z,29.32
2023-02-02T20:45:29.974Z,29.33
2023-02-02T20:48:00.719Z,29.29
2023-02-02T20:50:31.032Z,29.29
2023-02-02T20:53:01.618Z,29.25
2023-02-02T20:55:32.480Z,29.24
2023-02-02T20:58:04.667Z,29.22
2023-02-02T21:00:35.393Z,29.23
2023-02-02T21:03:06.627Z,29.25
2023-02-02T21:05:37.950Z,29.22
2023-02-02T21:08:08.458Z,29.20
2023-02-02T21:10:39.156Z,29.20
2023-02-02T21:13:09.915Z,29.19
2023-02-02T21:15:40.553Z,29.18
2023-02-02T21:18:11.272Z,29.16
2023-02-02T21:20:42.200Z,29.15
2023-02-02T21:23:15.431Z,29.13
2023-02-02T21:25:46.024Z,29.11
2023-02-02T21:28:16.400Z,29.11
2023-02-02T21:30:46.847Z,29.09
2023-02-02T21:33:18.453Z,29.09
2023-02-02T21:35:48.860Z,29.08
2023-02-02T21:38:19.354Z,29.10
2023-02-02T21:40:51.042Z,29.08
2023-02-02T21:43:21.496Z,29.08
2023-02-02T21:45:52.658Z,29.07
2023-02-02T21:48:31.184Z,29.08
2023-02-02T21:51:18.035Z,29.00
2023-02-02T21:53:48.526Z,28.99
2023-02-02T21:56:39.892Z,29.09
2023-02-02T21:59:39.451Z,29.08
2023-02-02T22:02:43.330Z,29.06
2023-02-02T22:05:15.171Z,29.01
2023-02-02T22:07:49.300Z,29.04
2023-02-02T22:10:25.376Z,29.07
2023-02-02T22:12:56.306Z,29.08
2023-02-02T22:15:30.672Z,29.06
2023-02-02T22:18:01.365Z,29.08
2023-02-02T22:20:36.760Z,29.06
2023-02-02T22:23:09.806Z,29.08
2023-02-02T22:25:42.279Z,29.10
2023-02-02T22:28:50.699Z,29.17
2023-02-02T22:31:21.062Z,29.09
2023-02-02T22:33:51.656Z,29.09
2023-02-02T22:36:22.401Z,29.10
2023-02-02T22:38:53.618Z,29.09
2023-02-02T22:41:23.838Z,29.10
2023-02-02T22:43:57.524Z,29.07
2023-02-02T22:46:27.941Z,29.07
2023-02-02T22:48:58.525Z,29.06
2023-02-02T22:51:29.548Z,29.05
2023-02-02T22:54:00.425Z,29.05
2023-02-02T22:56:31.231Z,29.08
2023-02-02T22:59:02.643Z,29.07
2023-02-02T23:01:33.191Z,29.02
2023-02-02T23:04:03.575Z,29.05
2023-02-02T23:06:34.226Z,29.09
2023-02-02T23:09:06.936Z,29.09
2023-02-02T23:11:37.373Z,29.07
2023-02-02T23:14:08.795Z,29.03
2023-02-02T23:16:39.512Z,29.10
2023-02-02T23:19:09.836Z,29.06
2023-02-02T23:21:40.104Z,29.06
2023-02-02T23:24:11.051Z,29.09
2023-02-02T23:26:43.982Z,29.08
2023-02-02T23:29:14.328Z,29.14
2023-02-02T23:31:45.400Z,29.13
2023-02-02T23:34:15.871Z,29.12
2023-02-02T23:37:06.684Z,29.12
2023-02-02T23:39:37.746Z,29.12
2023-02-02T23:42:08.159Z,29.17
2023-02-02T23:44:39.750Z,29.12
2023-02-02T23:47:11.117Z,29.18
2023-02-02T23:49:41.945Z,29.21
2023-02-02T23:52:15.439Z,29.23
2023-02-02T23:54:47.816Z,29.22
2023-02-02T23:57:21.703Z,29.26
2023-02-02T23:59:52.351Z,29.22
